Airfield :
LOGIN :

Register | Disclaimer

   EN    FR    IT 

 










Legend :    VFR   Marginal VFR   IFR   Intensive IFR   Very Intensive IFR
Visi :
Ceiling :
>= 8 km
>= 3000ft
5 to 8 km
1000 to 3000 ft
1500m to 5 km
500 to 1000 ft
800 to 1500m
200 to 500 ft
< 800m
< 200 ft
Symbols :   Thunderstorms  Fog  Heavy snow  Heavy precipitations  Wind > 20 kt
SIGMETs :     Misc.  Thunderstorms  Icing  Turbulence  Mountain Waves  Volcanic Ashes







- Airport Elevation : 161 ft
- IATA code : PMF


LIMP - Parma

CURRENT METAR :
  • 171650Z 27003KT 4000 BR NSC 00/M00 Q1025

EXPIRED METARs :
  • 171550Z 20004KT 5000 BR NSC 02/01 Q1024
  • 171450Z 26003KT 5000 BR NSC 03/01 Q1023

TAF TAF LIMP
Valid from the 17 at 12:00 until the 18 at 12:00 UTC


171100Z 1712/1812 28007KT 5000 BR SCT015
TEMPO 1803/1808 0500 FG
No reported NOTAMs for that airfield.
1 SIGMET reported for the Milano FIR (LIMM) :
 
Severe turbulence
LIMM SIGMET 3 VALID 171605/171805 LIIP
LIMM MILANO FIR SEV TURB FCST N OF LINE N4448 E00650 - N4458 E01315 ABV FL050 STNR NC=



MET'MAP, your aeronautical weather chart ! - Copyright ORBIFLY December 2007 - Disclaimer

ORBIFLY MET'MAP TEAM :

Programming & Development : Alexandra Zaïnal
Concept & Development : Baudouin d'Aumeries
Co-Development & Prog : Marc-Olivier Méhu
Technical & hardware support : Manuel Goepfert

Contact : metmap@orbifly.com




SOURCES & CREDITS :

   NOAA